createdAt,value
2022-08-19T00:02:17.172Z,98094.91
2022-08-19T00:04:47.882Z,98103.03
2022-08-19T00:07:16.270Z,98098.13
2022-08-19T00:09:48.073Z,98094.63
2022-08-19T00:12:16.704Z,98089.13
2022-08-19T00:14:45.144Z,98096.94
2022-08-19T00:17:13.695Z,98090.84
2022-08-19T00:19:42.475Z,98080.47
2022-08-19T00:22:12.932Z,98068.81
2022-08-19T00:24:44.565Z,98104.91
2022-08-19T00:27:26.254Z,98090.91
2022-08-19T00:29:55.401Z,98119.53
2022-08-19T00:32:23.896Z,98105.97
2022-08-19T00:34:54.312Z,98113.47
2022-08-19T00:37:24.063Z,98099.50
2022-08-19T00:39:53.005Z,98093.94
2022-08-19T00:42:24.016Z,98034.63
2022-08-19T00:44:54.623Z,98086.44
2022-08-19T00:47:23.072Z,98067.00
2022-08-19T00:49:54.187Z,98053.59
2022-08-19T00:52:25.643Z,98060.50
2022-08-19T00:54:55.004Z,98071.09
2022-08-19T00:57:31.999Z,98072.38
2022-08-19T01:00:03.404Z,98072.97
2022-08-19T01:02:34.235Z,98070.44
2022-08-19T01:05:05.086Z,98051.38
2022-08-19T01:07:36.007Z,98074.50
2022-08-19T01:10:09.924Z,98078.50
2022-08-19T01:12:42.284Z,98086.16
2022-08-19T01:15:12.907Z,98084.53
2022-08-19T01:17:42.272Z,98076.44
2022-08-19T01:20:14.876Z,98062.81
2022-08-19T01:22:48.410Z,98078.06
2022-08-19T01:25:19.408Z,98078.09
2022-08-19T01:27:53.314Z,98080.91
2022-08-19T01:30:25.162Z,98070.38
2022-08-19T01:32:54.835Z,98077.03
2022-08-19T01:35:25.369Z,98072.06
2022-08-19T01:37:57.853Z,98028.25
2022-08-19T01:40:31.839Z,98076.38
2022-08-19T01:43:01.133Z,98072.44
2022-08-19T01:45:30.847Z,98080.84
2022-08-19T01:48:02.761Z,98085.75
2022-08-19T01:50:32.712Z,98094.00
2022-08-19T01:53:06.852Z,98086.31
2022-08-19T01:55:40.899Z,98077.63
2022-08-19T01:58:16.041Z,98079.47
2022-08-19T02:00:44.731Z,98074.53
2022-08-19T02:03:13.171Z,98048.63
2022-08-19T02:05:42.763Z,98071.19
2022-08-19T02:08:13.340Z,98047.88
2022-08-19T02:10:46.069Z,98072.75
2022-08-19T02:13:15.471Z,98092.94
2022-08-19T02:15:44.060Z,98059.19
2022-08-19T02:18:12.516Z,98091.38
2022-08-19T02:20:44.712Z,98077.41
2022-08-19T02:23:18.173Z,98090.66
2022-08-19T02:25:50.139Z,98090.44
2022-08-19T02:28:19.168Z,98081.22
2022-08-19T02:30:49.307Z,98085.06
2022-08-19T02:33:18.314Z,98088.22
2022-08-19T02:35:48.075Z,98073.59
2022-08-19T02:38:28.268Z,98081.31
2022-08-19T02:40:59.535Z,98075.00
2022-08-19T02:43:33.944Z,98072.56
2022-08-19T02:46:03.911Z,98052.44
2022-08-19T02:48:33.721Z,98065.78
2022-08-19T02:51:02.532Z,98057.25
2022-08-19T02:53:32.206Z,98067.53
2022-08-19T02:56:00.819Z,98084.16
2022-08-19T02:58:29.155Z,98083.03
2022-08-19T03:00:59.157Z,98090.13
2022-08-19T03:03:28.088Z,98074.94
2022-08-19T03:06:10.484Z,98078.66
2022-08-19T03:08:42.622Z,98075.31
2022-08-19T03:11:15.744Z,98061.47
2022-08-19T03:13:44.773Z,98079.09
2022-08-19T03:16:14.398Z,98086.22
2022-08-19T03:18:43.089Z,98092.97
2022-08-19T03:21:18.529Z,98071.75
2022-08-19T03:23:48.446Z,98085.09
2022-08-19T03:26:17.314Z,98084.50
2022-08-19T03:28:51.792Z,98086.28
2022-08-19T03:31:43.388Z,98093.50
2022-08-19T03:34:16.465Z,98101.03
2022-08-19T03:36:45.416Z,98096.66
2022-08-19T03:39:18.082Z,98101.03
2022-08-19T03:41:48.506Z,98097.13
2022-08-19T03:44:20.587Z,98100.50
2022-08-19T03:46:50.571Z,98081.72
2022-08-19T03:49:27.155Z,98074.75
2022-08-19T03:51:58.465Z,98092.03
2022-08-19T03:54:30.940Z,98061.03
2022-08-19T03:57:00.377Z,98088.31
2022-08-19T03:59:31.544Z,98082.94
2022-08-19T04:02:02.121Z,98100.22
2022-08-19T04:04:31.849Z,98105.28
2022-08-19T04:07:04.113Z,98103.53
2022-08-19T04:09:37.523Z,98122.28
2022-08-19T04:12:07.580Z,98126.22
2022-08-19T04:14:36.534Z,98090.97
2022-08-19T04:17:06.409Z,98116.06
2022-08-19T04:19:38.060Z,98103.03
2022-08-19T04:22:07.788Z,98111.88
2022-08-19T04:24:37.998Z,98115.84
2022-08-19T04:27:07.441Z,98071.34
2022-08-19T04:29:35.984Z,98112.47
2022-08-19T04:32:09.193Z,98113.56
2022-08-19T04:35:02.530Z,98100.09
2022-08-19T04:37:35.065Z,98094.88
2022-08-19T04:40:25.835Z,98069.84
2022-08-19T04:42:55.058Z,98103.09
2022-08-19T04:45:26.337Z,98092.28
2022-08-19T04:48:19.723Z,98103.00
2022-08-19T04:50:46.529Z,98107.69
2022-08-19T04:53:14.876Z,98107.09
2022-08-19T04:55:44.806Z,98110.34
2022-08-19T04:58:17.396Z,98116.53
2022-08-19T05:00:48.321Z,98126.66
2022-08-19T05:03:17.955Z,98112.69
2022-08-19T05:05:49.357Z,98114.78
2022-08-19T05:08:30.738Z,98118.97
2022-08-19T05:11:01.995Z,98087.19
2022-08-19T05:13:30.983Z,98117.88
2022-08-19T05:16:00.855Z,98127.56
2022-08-19T05:18:46.563Z,98123.34
2022-08-19T05:21:34.696Z,98131.75
2022-08-19T05:24:09.771Z,98131.47
2022-08-19T05:26:41.067Z,98127.50
2022-08-19T05:29:11.061Z,98147.22
2022-08-19T05:31:42.165Z,98146.81
2022-08-19T05:34:20.059Z,98150.94
2022-08-19T05:36:50.527Z,98153.63
2022-08-19T05:39:21.985Z,98166.25
2022-08-19T05:41:55.519Z,98172.25
2022-08-19T05:44:23.899Z,98180.41
2022-08-19T05:46:54.080Z,98190.06
2022-08-19T05:49:24.566Z,98202.28
2022-08-19T05:51:53.192Z,98204.84
2022-08-19T05:54:22.215Z,98153.56
2022-08-19T05:56:53.302Z,98208.03
2022-08-19T05:59:23.150Z,98200.81
2022-08-19T06:01:55.340Z,98182.91
2022-08-19T06:04:26.415Z,98187.91
2022-08-19T06:06:55.961Z,98154.06
2022-08-19T06:09:25.397Z,98191.56
2022-08-19T06:11:59.805Z,98189.53
2022-08-19T06:14:35.049Z,98138.75
2022-08-19T06:17:07.266Z,98180.69
2022-08-19T06:19:40.857Z,98194.78
2022-08-19T06:22:10.721Z,98193.13
2022-08-19T06:24:39.111Z,98162.28
2022-08-19T06:27:08.840Z,98189.63
2022-08-19T06:29:37.558Z,98189.53
2022-08-19T06:32:06.930Z,98182.84
2022-08-19T06:34:37.096Z,98188.72
2022-08-19T06:37:06.656Z,98186.13
2022-08-19T06:39:39.355Z,98181.66
2022-08-19T06:42:12.460Z,98187.53
2022-08-19T06:44:48.049Z,98174.47
2022-08-19T06:47:23.375Z,98192.56
2022-08-19T06:50:01.349Z,98183.31
2022-08-19T06:52:31.887Z,98159.66
2022-08-19T06:55:05.953Z,98178.25
2022-08-19T06:57:36.802Z,98186.22
2022-08-19T07:00:12.966Z,98198.00
2022-08-19T07:02:43.441Z,98202.44
2022-08-19T07:05:15.459Z,98203.78
2022-08-19T07:07:44.704Z,98211.94
2022-08-19T07:10:16.110Z,98204.94
2022-08-19T07:12:48.451Z,98185.47
2022-08-19T07:15:19.521Z,98202.38
2022-08-19T07:17:52.582Z,98177.69
2022-08-19T07:20:21.718Z,98198.22
2022-08-19T07:22:56.861Z,98186.28
2022-08-19T07:25:32.358Z,98198.25
2022-08-19T07:28:03.153Z,98190.22
2022-08-19T07:30:31.835Z,98206.56
2022-08-19T07:33:03.449Z,98196.00
2022-08-19T07:35:33.120Z,98171.53
2022-08-19T07:38:03.641Z,98208.31
2022-08-19T07:40:32.890Z,98179.59
2022-08-19T07:43:01.338Z,98191.75
2022-08-19T07:45:31.765Z,98172.53
2022-08-19T07:48:01.029Z,98210.13
2022-08-19T07:50:29.730Z,98212.94
2022-08-19T07:52:58.106Z,98214.06
2022-08-19T07:55:41.039Z,98201.13
2022-08-19T07:58:13.824Z,98207.53
2022-08-19T08:00:44.864Z,98181.19
2022-08-19T08:03:14.231Z,98204.69
2022-08-19T08:06:03.325Z,98206.34
2022-08-19T08:08:49.183Z,98194.22
2022-08-19T08:11:21.037Z,98218.84
2022-08-19T08:14:01.370Z,98218.16
2022-08-19T08:16:39.363Z,98213.91
2022-08-19T08:19:14.764Z,98197.69
2022-08-19T08:21:57.237Z,98202.69
2022-08-19T08:24:28.506Z,98218.28
2022-08-19T08:26:57.806Z,98236.00
2022-08-19T08:29:34.758Z,98227.63
2022-08-19T08:32:14.135Z,98210.91
2022-08-19T08:34:43.579Z,98221.94
2022-08-19T08:37:12.013Z,98227.34
2022-08-19T08:39:40.659Z,98233.34
2022-08-19T08:42:16.883Z,98240.88
2022-08-19T08:47:37.077Z,98223.47
2022-08-19T08:50:08.836Z,98222.75
2022-08-19T08:52:47.188Z,98217.66
2022-08-19T08:55:20.504Z,98233.53
2022-08-19T08:57:55.968Z,98229.59
2022-08-19T09:00:30.463Z,98231.31
2022-08-19T09:03:01.904Z,98211.16
2022-08-19T09:05:42.157Z,98226.63
2022-08-19T09:08:30.140Z,98226.28
2022-08-19T09:10:59.323Z,98217.75
2022-08-19T09:13:37.529Z,98206.97
2022-08-19T09:16:09.575Z,98201.94
2022-08-19T09:18:44.855Z,98228.81
2022-08-19T09:21:14.237Z,98223.72
2022-08-19T09:23:44.961Z,98201.38
2022-08-19T09:26:16.877Z,98227.44
2022-08-19T09:28:48.280Z,98220.19
2022-08-19T09:31:19.868Z,98227.88
2022-08-19T09:33:53.264Z,98226.78
2022-08-19T09:36:34.569Z,98230.19
2022-08-19T09:39:04.723Z,98206.13
2022-08-19T09:41:47.666Z,98202.84
2022-08-19T09:44:18.135Z,98214.28
2022-08-19T09:46:49.413Z,98211.59
2022-08-19T09:49:22.697Z,98227.03
2022-08-19T09:51:55.330Z,98214.28
2022-08-19T09:54:25.059Z,98237.66
2022-08-19T09:59:24.118Z,98241.13
2022-08-19T10:01:52.955Z,98230.53
2022-08-19T10:04:44.331Z,98231.88
2022-08-19T10:07:13.812Z,98235.41
2022-08-19T10:09:42.336Z,98186.41
2022-08-19T10:12:11.275Z,98236.00
2022-08-19T10:14:40.368Z,98229.81
2022-08-19T10:17:17.899Z,98233.94
2022-08-19T10:19:55.948Z,98212.84
2022-08-19T10:22:25.629Z,98223.44
2022-08-19T10:24:54.715Z,98212.47
2022-08-19T10:27:23.319Z,98226.03
2022-08-19T10:29:51.724Z,98214.44
2022-08-19T10:32:33.819Z,98206.88
2022-08-19T10:35:08.761Z,98211.72
2022-08-19T10:37:42.332Z,98222.94
2022-08-19T10:40:26.132Z,98221.13
2022-08-19T10:42:57.324Z,98223.09
2022-08-19T10:45:28.183Z,98193.16
2022-08-19T10:47:56.689Z,98194.13
2022-08-19T10:50:43.955Z,98186.66
2022-08-19T10:53:12.390Z,98193.16
2022-08-19T10:55:57.287Z,98184.09
2022-08-19T10:58:27.228Z,98173.38
2022-08-19T11:00:56.489Z,98170.59
2022-08-19T11:03:25.562Z,98162.28
2022-08-19T11:06:00.638Z,98158.56
2022-08-19T11:08:28.855Z,98162.25
2022-08-19T11:11:01.477Z,98165.78
2022-08-19T11:13:30.256Z,98177.13
2022-08-19T11:16:02.690Z,98171.88
2022-08-19T11:18:33.360Z,98177.75
2022-08-19T11:21:08.746Z,98178.06
2022-08-19T11:23:37.094Z,98178.06
2022-08-19T11:26:05.450Z,98170.13
2022-08-19T11:28:33.681Z,98172.09
2022-08-19T11:31:03.736Z,98167.78
2022-08-19T11:33:32.180Z,98169.13
2022-08-19T11:36:00.870Z,98173.69
2022-08-19T11:38:31.328Z,98177.91
2022-08-19T11:41:00.421Z,98169.94
2022-08-19T11:43:28.650Z,98165.16
2022-08-19T11:45:57.255Z,98175.56
2022-08-19T11:48:27.844Z,98175.47
2022-08-19T11:50:57.525Z,98171.75
2022-08-19T11:53:25.671Z,98173.22
2022-08-19T11:55:57.531Z,98170.78
2022-08-19T11:58:26.071Z,98178.56
2022-08-19T12:00:54.255Z,98168.47
2022-08-19T12:03:22.337Z,98170.09
2022-08-19T12:05:50.917Z,98166.16
2022-08-19T12:08:19.026Z,98169.25
2022-08-19T12:10:47.306Z,98170.44
2022-08-19T12:13:19.594Z,98176.28
2022-08-19T12:15:48.843Z,98173.88
2022-08-19T12:18:16.976Z,98176.63
2022-08-19T12:20:48.517Z,98171.41
2022-08-19T12:23:19.182Z,98170.66
2022-08-19T12:25:51.126Z,98167.19
2022-08-19T12:28:21.665Z,98159.97
2022-08-19T12:30:51.024Z,98161.50
2022-08-19T12:33:25.048Z,98147.06
2022-08-19T12:35:53.930Z,98144.13
2022-08-19T12:38:25.157Z,98141.69
2022-08-19T12:40:57.097Z,98153.28
2022-08-19T12:43:31.290Z,98115.22
2022-08-19T12:45:59.539Z,98142.16
2022-08-19T12:48:34.496Z,98149.28
2022-08-19T12:51:03.604Z,98157.25
2022-08-19T12:53:31.884Z,98137.66
2022-08-19T12:56:01.336Z,98158.53
2022-08-19T12:58:31.064Z,98165.06
2022-08-19T13:00:59.136Z,98157.97
2022-08-19T13:03:30.271Z,98162.13
2022-08-19T13:05:58.578Z,98166.75
2022-08-19T13:08:26.770Z,98176.03
2022-08-19T13:10:55.433Z,98168.47
2022-08-19T13:13:23.689Z,98178.47
2022-08-19T13:15:53.120Z,98174.72
2022-08-19T13:18:21.688Z,98165.38
2022-08-19T13:20:53.028Z,98158.31
2022-08-19T13:23:21.309Z,98161.72
2022-08-19T13:25:57.260Z,98166.91
2022-08-19T13:28:28.994Z,98176.59
2022-08-19T13:31:16.956Z,98167.84
2022-08-19T13:33:46.201Z,98175.06
2022-08-19T13:36:14.275Z,98174.50
2022-08-19T13:38:43.245Z,98181.41
2022-08-19T13:41:14.766Z,98177.47
2022-08-19T13:43:43.075Z,98172.59
2022-08-19T13:46:14.944Z,98169.34
2022-08-19T13:48:43.176Z,98180.06
2022-08-19T13:51:11.881Z,98177.97
2022-08-19T13:53:47.769Z,98166.34
2022-08-19T13:56:17.452Z,98166.34
2022-08-19T13:58:45.629Z,98168.19
2022-08-19T14:01:20.691Z,98162.44
2022-08-19T14:03:52.856Z,98167.53
2022-08-19T14:06:22.300Z,98165.59
2022-08-19T14:08:50.973Z,98157.63
2022-08-19T14:11:21.130Z,98156.81
2022-08-19T14:13:49.175Z,98159.22
2022-08-19T14:16:22.484Z,98158.41
2022-08-19T14:18:50.616Z,98166.38
2022-08-19T14:21:21.019Z,98169.59
2022-08-19T14:23:49.240Z,98171.53
2022-08-19T14:26:18.612Z,98172.09
2022-08-19T14:28:46.801Z,98163.06
2022-08-19T14:31:17.554Z,98158.78
2022-08-19T14:33:47.176Z,98163.06
2022-08-19T14:36:15.751Z,98155.41
2022-08-19T14:38:43.957Z,98163.09
2022-08-19T14:41:13.935Z,98147.06
2022-08-19T14:43:42.500Z,98148.09
2022-08-19T14:46:11.444Z,98149.66
2022-08-19T14:48:41.475Z,98146.94
2022-08-19T14:51:11.413Z,98150.16
2022-08-19T14:53:39.756Z,98134.53
2022-08-19T14:56:11.977Z,98150.03
2022-08-19T14:58:41.115Z,98135.34
2022-08-19T15:01:09.745Z,98144.50
2022-08-19T15:03:37.898Z,98138.41
2022-08-19T15:06:06.887Z,98136.66
2022-08-19T15:08:37.821Z,98121.28
2022-08-19T15:11:10.646Z,98138.50
2022-08-19T15:13:39.171Z,98131.91
2022-08-19T15:16:07.493Z,98136.66
2022-08-19T15:18:47.036Z,98130.50
2022-08-19T15:21:17.431Z,98135.72
2022-08-19T15:23:57.232Z,98133.88
2022-08-19T15:26:26.661Z,98133.94
2022-08-19T15:28:55.352Z,98132.94
2022-08-19T15:31:28.432Z,98140.00
2022-08-19T15:33:58.307Z,98145.31
2022-08-19T15:36:26.928Z,98153.59
2022-08-19T15:38:56.594Z,98146.78
2022-08-19T15:41:30.550Z,98157.00
2022-08-19T15:44:03.830Z,98154.81
2022-08-19T15:46:33.279Z,98150.41
2022-08-19T15:49:01.734Z,98158.47
2022-08-19T15:51:31.823Z,98158.94
2022-08-19T15:54:01.347Z,98158.63
2022-08-19T15:56:58.457Z,98166.34
2022-08-19T15:59:47.457Z,98163.84
2022-08-19T16:02:33.793Z,98160.00
2022-08-19T16:05:19.504Z,98161.88
2022-08-19T16:07:47.959Z,98168.09
2022-08-19T16:10:26.473Z,98158.25
2022-08-19T16:12:56.112Z,98166.19
2022-08-19T16:15:24.374Z,98162.94
2022-08-19T16:17:55.687Z,98162.81
2022-08-19T16:20:28.502Z,98162.13
2022-08-19T16:22:58.339Z,98164.22
2022-08-19T16:25:30.336Z,98154.63
2022-08-19T16:28:07.290Z,98169.28
2022-08-19T16:30:37.944Z,98161.59
2022-08-19T16:33:06.131Z,98162.53
2022-08-19T16:35:34.251Z,98162.25
2022-08-19T16:38:02.607Z,98168.03
2022-08-19T16:40:32.077Z,98167.50
2022-08-19T16:43:00.243Z,98165.44
2022-08-19T16:45:28.409Z,98174.69
2022-08-19T16:47:57.520Z,98173.47
2022-08-19T16:50:46.231Z,98181.09
2022-08-19T16:53:13.804Z,98176.47
2022-08-19T16:55:43.438Z,98185.06
2022-08-19T16:58:11.521Z,98184.28
2022-08-19T17:00:39.777Z,98188.63
2022-08-19T17:03:14.255Z,98185.72
2022-08-19T17:05:43.431Z,98192.31
2022-08-19T17:08:11.604Z,98201.47
2022-08-19T17:10:39.876Z,98194.38
2022-08-19T17:13:11.553Z,98198.25
2022-08-19T17:15:39.618Z,98199.44
2022-08-19T17:18:08.855Z,98201.06
2022-08-19T17:20:39.478Z,98206.38
2022-08-19T17:23:10.004Z,98204.72
2022-08-19T17:25:41.013Z,98215.88
2022-08-19T17:28:09.685Z,98207.66
2022-08-19T17:30:39.378Z,98204.72
2022-08-19T17:33:09.643Z,98211.84
2022-08-19T17:35:43.452Z,98213.97
2022-08-19T17:38:16.420Z,98222.09
2022-08-19T17:40:45.364Z,98221.19
2022-08-19T17:43:14.801Z,98217.22
2022-08-19T17:45:45.373Z,98221.44
2022-08-19T17:48:16.174Z,98223.31
2022-08-19T17:50:44.816Z,98230.72
2022-08-19T17:53:16.025Z,98228.28
2022-08-19T17:55:44.363Z,98224.50
2022-08-19T17:58:16.641Z,98232.00
2022-08-19T18:00:53.369Z,98226.84
2022-08-19T18:05:50.328Z,98237.88
2022-08-19T18:08:18.421Z,98240.38
2022-08-19T18:10:46.893Z,98245.91
2022-08-19T18:13:17.598Z,98242.16
2022-08-19T18:15:47.340Z,98242.88
2022-08-19T18:18:19.624Z,98247.72
2022-08-19T18:20:49.992Z,98253.59
2022-08-19T18:23:44.429Z,98252.88
2022-08-19T18:26:07.095Z,98252.66
2022-08-19T18:28:35.539Z,98253.69
2022-08-19T18:31:04.204Z,98250.22
2022-08-19T18:33:34.383Z,98257.91
2022-08-19T18:36:12.436Z,98260.16
2022-08-19T18:38:58.094Z,98266.06
2022-08-19T18:41:45.880Z,98265.84
2022-08-19T18:44:31.241Z,98268.91
2022-08-19T18:47:16.828Z,98265.16
2022-08-19T18:49:46.403Z,98273.09
2022-08-19T18:52:15.278Z,98268.50
2022-08-19T18:54:46.914Z,98279.50
2022-08-19T18:57:33.001Z,98277.88
2022-08-19T19:00:02.745Z,98293.84
2022-08-19T19:02:38.552Z,98286.59
2022-08-19T19:05:11.232Z,98286.50
2022-08-19T19:07:39.681Z,98292.19
2022-08-19T19:10:08.323Z,98303.75
2022-08-19T19:12:37.793Z,98305.47
2022-08-19T19:15:06.475Z,98308.69
2022-08-19T19:17:34.562Z,98294.78
2022-08-19T19:20:05.901Z,98298.44
2022-08-19T19:22:37.691Z,98299.75
2022-08-19T19:25:08.902Z,98303.31
2022-08-19T19:27:37.131Z,98301.84
2022-08-19T19:30:06.416Z,98298.16
2022-08-19T19:32:39.284Z,98308.84
2022-08-19T19:35:09.453Z,98310.28
2022-08-19T19:37:43.293Z,98308.03
2022-08-19T19:40:11.572Z,98306.91
2022-08-19T19:42:39.690Z,98314.66
2022-08-19T19:45:08.365Z,98316.28
2022-08-19T19:47:36.530Z,98309.41
2022-08-19T19:50:14.421Z,98307.53
2022-08-19T19:52:46.548Z,98311.16
2022-08-19T19:55:17.929Z,98309.75
2022-08-19T19:57:46.331Z,98308.38
2022-08-19T20:00:16.498Z,98309.31
2022-08-19T20:02:49.259Z,98314.25
2022-08-19T20:05:21.094Z,98316.72
2022-08-19T20:08:09.004Z,98321.97
2022-08-19T20:10:37.603Z,98318.56
2022-08-19T20:13:06.179Z,98321.75
2022-08-19T20:15:37.909Z,98323.22
2022-08-19T20:18:11.066Z,98327.50
2022-08-19T20:20:41.851Z,98324.41
2022-08-19T20:23:11.367Z,98329.34
2022-08-19T20:25:40.254Z,98325.16
2022-08-19T20:28:12.320Z,98326.09
2022-08-19T20:30:46.590Z,98326.28
2022-08-19T20:33:16.308Z,98320.34
2022-08-19T20:35:44.817Z,98322.28
2022-08-19T20:38:14.302Z,98322.94
2022-08-19T20:40:44.512Z,98325.97
2022-08-19T20:43:13.524Z,98334.44
2022-08-19T20:45:44.252Z,98330.38
2022-08-19T20:48:12.465Z,98327.47
2022-08-19T20:50:40.781Z,98337.44
2022-08-19T20:53:13.072Z,98342.00
2022-08-19T20:55:45.498Z,98342.41
2022-08-19T20:58:14.137Z,98347.03
2022-08-19T21:00:43.865Z,98344.84
2022-08-19T21:03:12.803Z,98351.03
2022-08-19T21:05:40.956Z,98344.88
2022-08-19T21:08:09.341Z,98327.59
2022-08-19T21:10:42.405Z,98340.50
2022-08-19T21:13:12.090Z,98355.72
2022-08-19T21:15:43.084Z,98351.28
2022-08-19T21:18:12.214Z,98347.50
2022-08-19T21:20:43.347Z,98354.03
2022-08-19T21:23:15.363Z,98350.78
2022-08-19T21:25:54.493Z,98356.69
2022-08-19T21:28:34.314Z,98351.53
2022-08-19T21:31:05.194Z,98354.69
2022-08-19T21:33:33.370Z,98355.41
2022-08-19T21:36:01.538Z,98352.16
2022-08-19T21:38:30.085Z,98359.47
2022-08-19T21:40:58.317Z,98366.25
2022-08-19T21:43:31.336Z,98363.38
2022-08-19T21:45:59.772Z,98373.91
2022-08-19T21:48:30.392Z,98366.03
2022-08-19T21:50:58.454Z,98374.03
2022-08-19T21:53:26.856Z,98375.81
2022-08-19T21:56:02.179Z,98381.13
2022-08-19T21:58:31.647Z,98384.41
2022-08-19T22:02:39.227Z,98395.81
2022-08-19T22:05:09.998Z,98394.81
2022-08-19T22:07:38.161Z,98395.63
2022-08-19T22:10:07.479Z,98385.22
2022-08-19T22:12:39.287Z,98401.53
2022-08-19T22:15:15.845Z,98388.28
2022-08-19T22:17:49.036Z,98399.50
2022-08-19T22:20:18.183Z,98399.81
2022-08-19T22:22:47.494Z,98405.09
2022-08-19T22:25:31.134Z,98406.63
2022-08-19T22:28:04.229Z,98403.84
2022-08-19T22:30:34.033Z,98408.97
2022-08-19T22:33:05.670Z,98408.13
2022-08-19T22:35:35.836Z,98405.63
2022-08-19T22:38:07.345Z,98405.69
2022-08-19T22:40:36.816Z,98401.00
2022-08-19T22:43:05.936Z,98408.94
2022-08-19T22:45:35.123Z,98415.25
2022-08-19T22:48:04.887Z,98415.94
2022-08-19T22:50:33.020Z,98422.47
2022-08-19T22:53:02.597Z,98420.94
2022-08-19T22:55:31.346Z,98422.16
2022-08-19T22:57:59.912Z,98420.81
2022-08-19T23:00:29.018Z,98426.38
2022-08-19T23:02:58.122Z,98417.84
2022-08-19T23:05:28.483Z,98421.66
2022-08-19T23:07:58.064Z,98420.75
2022-08-19T23:10:29.077Z,98421.03
2022-08-19T23:12:58.026Z,98413.75
2022-08-19T23:15:27.156Z,98411.81
2022-08-19T23:17:56.251Z,98416.94
2022-08-19T23:20:27.005Z,98410.47
2022-08-19T23:22:57.010Z,98419.00
2022-08-19T23:25:27.378Z,98415.72
2022-08-19T23:28:13.659Z,98412.69
2022-08-19T23:30:43.665Z,98420.28
2022-08-19T23:33:15.245Z,98427.81
2022-08-19T23:35:43.414Z,98414.91
2022-08-19T23:38:12.856Z,98423.41
2022-08-19T23:40:43.407Z,98422.38
2022-08-19T23:43:16.957Z,98424.00
2022-08-19T23:45:51.316Z,98421.47
2022-08-19T23:48:19.527Z,98422.63
2022-08-19T23:50:47.613Z,98420.59
2022-08-19T23:53:17.339Z,98429.94
2022-08-19T23:55:48.292Z,98419.75
2022-08-19T23:58:16.950Z,98428.34
